Time;durP1;ratioP1;P1;durP2;ratioP2;P2;SDS_P1;SDS_P2;PMS_P1;PMS_P2;Temp;Humidity;BMP_temperature;BMP_pressure;BME280_temperature;BME280_humidity;BME280_pressure;Samples;Min_cycle;Max_cycle;Signal;HPM_P1;HPM_P2
2022/12/28 00:01:16;;;;;;;10.50;3.95;;;1.50;99.90;;;;;;5048062;28;20032;-79
2022/12/28 00:03:42;;;;;;;6.95;3.53;;;;;;;;;;5047292;28;20041;-78
2022/12/28 00:06:09;;;;;;;6.63;4.30;;;1.20;99.90;;;;;;5047346;28;20025;-78
2022/12/28 00:08:35;;;;;;;6.15;4.57;;;;;;;;;;5046898;28;20040;-79
2022/12/28 00:11:04;;;;;;;5.63;3.30;;;1.40;99.90;;;;;;5046996;28;20068;-78
2022/12/28 00:13:30;;;;;;;11.30;5.00;;;1.50;99.90;;;;;;5046465;28;20024;-78
2022/12/28 00:15:56;;;;;;;4.80;2.85;;;1.40;99.90;;;;;;5047273;28;20214;-78
2022/12/28 00:18:22;;;;;;;4.97;2.95;;;;;;;;;;5046571;28;20151;-78
2022/12/28 00:20:58;;;;;;;5.22;3.47;;;1.40;99.90;;;;;;5047083;28;20104;-78
2022/12/28 00:23:24;;;;;;;6.40;3.95;;;1.30;99.90;;;;;;5046958;28;20025;-78
2022/12/28 00:25:51;;;;;;;8.77;3.58;;;1.30;99.90;;;;;;5046880;28;20433;-78
2022/12/28 00:28:17;;;;;;;15.98;4.68;;;;;;;;;;5046436;28;20696;-78
2022/12/28 00:30:42;;;;;;;10.75;4.60;;;;;;;;;;5047010;28;20029;-78
2022/12/28 00:33:08;;;;;;;12.13;4.70;;;;;;;;;;5048602;28;20025;-78
2022/12/28 00:35:34;;;;;;;7.93;4.97;;;;;;;;;;5046775;28;20029;-77
2022/12/28 00:38:00;;;;;;;9.02;3.63;;;;;;;;;;5046514;28;20025;-78
2022/12/28 00:40:26;;;;;;;7.57;4.32;;;;;;;;;;5046699;28;20028;-78
2022/12/28 00:42:52;;;;;;;6.55;4.15;;;;;;;;;;5046216;28;20057;-78
2022/12/28 00:45:18;;;;;;;15.95;4.18;;;;;;;;;;5046020;28;20017;-78
2022/12/28 00:47:44;;;;;;;5.85;3.10;;;;;;;;;;5046553;28;20119;-78
2022/12/28 00:50:10;;;;;;;4.00;2.50;;;;;;;;;;5046782;28;20151;-78
2022/12/28 00:52:36;;;;;;;4.60;2.17;;;;;;;;;;5046423;28;20029;-78
2022/12/28 00:55:02;;;;;;;8.23;3.08;;;;;;;;;;5046840;28;20024;-78
2022/12/28 00:57:30;;;;;;;9.77;4.57;;;0.30;99.90;;;;;;5046239;28;20063;-78
2022/12/28 00:59:55;;;;;;;8.32;3.20;;;1.60;99.90;;;;;;5045092;28;20017;-78
2022/12/28 01:02:21;;;;;;;7.57;3.55;;;;;;;;;;5046036;28;20570;-77
2022/12/28 01:04:47;;;;;;;5.43;3.08;;;;;;;;;;5046680;28;20025;-77
2022/12/28 01:07:14;;;;;;;7.18;3.42;;;;;;;;;;5046061;28;20028;-78
2022/12/28 01:09:39;;;;;;;8.48;3.40;;;;;;;;;;5046626;28;20151;-78
2022/12/28 01:12:05;;;;;;;8.75;3.60;;;1.50;99.90;;;;;;5044222;28;20120;-78
2022/12/28 01:14:31;;;;;;;5.25;3.30;;;1.40;99.90;;;;;;5035178;28;20021;-77
2022/12/28 01:16:57;;;;;;;8.02;4.28;;;1.50;99.90;;;;;;5044287;28;20399;-78
2022/12/28 01:19:23;;;;;;;9.10;3.97;;;1.70;99.90;;;;;;5044545;28;20501;-79
2022/12/28 01:21:50;;;;;;;10.35;4.40;;;1.50;99.90;;;;;;5046176;28;20146;-78
2022/12/28 01:24:16;;;;;;;7.70;3.47;;;;;;;;;;5046289;28;20040;-78
2022/12/28 01:26:42;;;;;;;5.13;3.42;;;1.50;99.90;;;;;;5046239;28;20056;-78
2022/12/28 01:29:08;;;;;;;6.05;3.22;;;;;;;;;;5048462;28;20734;-78
2022/12/28 01:31:33;;;;;;;6.68;3.70;;;1.30;99.90;;;;;;5045842;28;20029;-78
2022/12/28 01:33:59;;;;;;;3.47;3.17;;;;;;;;;;5046320;28;20028;-78
2022/12/28 01:36:27;;;;;;;7.25;3.53;;;1.20;99.90;;;;;;5045815;28;20029;-78
2022/12/28 01:38:56;;;;;;;3.15;2.63;;;1.20;99.90;;;;;;5045957;28;20040;-78
2022/12/28 01:41:22;;;;;;;4.55;3.20;;;1.20;99.90;;;;;;5045921;28;20040;-78
2022/12/28 01:43:51;;;;;;;9.05;3.33;;;1.10;99.90;;;;;;5044217;28;20687;-78
2022/12/28 01:46:21;;;;;;;5.65;2.85;;;1.00;99.90;;;;;;5049612;28;20509;-78
2022/12/28 01:48:51;;;;;;;9.60;4.35;;;1.20;99.90;;;;;;5048651;28;20025;-78
2022/12/28 01:51:18;;;;;;;5.22;3.63;;;1.30;99.90;;;;;;5038622;28;20033;-78
2022/12/28 01:53:45;;;;;;;6.90;3.88;;;1.20;99.90;;;;;;5049377;28;20504;-78
2022/12/28 01:56:11;;;;;;;6.93;4.05;;;;;;;;;;5049576;28;20025;-78
2022/12/28 01:58:38;;;;;;;5.15;2.63;;;1.30;99.90;;;;;;5049838;28;20065;-78
2022/12/28 02:01:04;;;;;;;5.75;2.80;;;;;;;;;;5042333;28;20554;-78
2022/12/28 02:03:33;;;;;;;6.65;3.38;;;1.30;99.90;;;;;;5049249;28;20040;-77
2022/12/28 02:06:04;;;;;;;3.08;2.00;;;1.30;99.90;;;;;;5048170;28;20021;-77
2022/12/28 02:08:40;;;;;;;13.10;5.43;;;1.20;99.90;;;;;;5049291;28;20052;-78
2022/12/28 02:11:10;;;;;;;13.45;4.60;;;1.10;99.90;;;;;;5049811;28;20029;-78
2022/12/28 02:13:37;;;;;;;21.80;3.50;;;3.00;99.90;;;;;;5049291;28;20095;-78
2022/12/28 02:16:04;;;;;;;8.45;3.25;;;1.00;99.90;;;;;;5049205;28;20026;-78
2022/12/28 02:18:30;;;;;;;9.20;3.70;;;;;;;;;;5049652;28;20120;-78
2022/12/28 02:21:08;;;;;;;6.93;3.03;;;0.90;99.90;;;;;;5049627;28;20508;-77
2022/12/28 02:23:54;;;;;;;;;;;0.90;99.90;;;;;;5037772;28;20025;-78
2022/12/28 02:27:02;;;;;;;5.90;2.78;;;0.70;99.90;;;;;;5048968;28;19911;-78
2022/12/28 02:29:56;;;;;;;7.13;3.50;;;0.70;99.90;;;;;;5043097;28;20040;-78
2022/12/28 02:32:39;;;;;;;6.07;4.32;;;0.70;99.90;;;;;;5048907;28;20029;-78
2022/12/28 02:35:26;;;;;;;3.72;2.30;;;0.70;99.90;;;;;;5038680;28;20079;-79
2022/12/28 02:38:01;;;;;;;18.00;2.15;;;0.70;99.90;;;;;;5049413;28;20041;-78
2022/12/28 02:41:07;;;;;;;6.53;2.60;;;0.70;99.90;;;;;;5048671;28;20029;-78
2022/12/28 02:43:33;;;;;;;3.72;2.90;;;0.70;99.90;;;;;;5018144;28;20430;-78
2022/12/28 02:52:49;;;;;;;3.97;2.45;;;0.90;99.90;;;;;;4996164;28;20033;-78
2022/12/28 02:56:08;;;;;;;6.68;2.78;;;0.80;99.90;;;;;;4948133;28;20071;-78
2022/12/28 02:58:33;;;;;;;4.60;3.10;;;;;;;;;;4937238;28;20043;-78
2022/12/28 03:01:18;;;;;;;4.25;2.55;;;0.80;99.90;;;;;;4947461;28;20409;-78
2022/12/28 03:04:12;;;;;;;3.28;2.25;;;1.00;99.90;;;;;;4947785;28;20046;-78
2022/12/28 03:09:40;;;;;;;3.55;2.25;;;0.60;99.90;;;;;;4947654;28;20042;-78
2022/12/28 03:12:26;;;;;;;3.58;2.53;;;0.50;99.90;;;;;;4947638;28;20046;-78
2022/12/28 03:15:03;;;;;;;3.03;2.13;;;0.60;99.90;;;;;;4946710;28;20078;-78
2022/12/28 03:31:29;;;;;;;1.92;1.55;;;0.60;99.90;;;;;;5047985;28;20418;-78
2022/12/28 03:34:07;;;;;;;12.13;4.00;;;0.60;99.90;;;;;;5047921;28;20124;-78
2022/12/28 03:36:38;;;;;;;8.32;3.42;;;0.50;99.90;;;;;;5055774;28;20036;-78
2022/12/28 03:39:28;;;;;;;9.23;2.90;;;0.50;99.90;;;;;;5047930;28;20056;-78
2022/12/28 03:45:11;;;;;;;9.63;3.58;;;0.30;99.90;;;;;;5047423;28;20049;-78
2022/12/28 03:47:38;;;;;;;3.17;2.60;;;0.40;99.90;;;;;;5047697;28;20021;-78
2022/12/28 03:50:04;;;;;;;6.13;2.75;;;0.40;99.90;;;;;;5047492;28;20052;-78
2022/12/28 03:52:31;;;;;;;2.83;1.95;;;0.30;99.90;;;;;;5047413;28;20037;-78
2022/12/28 03:54:58;;;;;;;6.15;3.53;;;;;;;;;;5047110;28;20460;-78
2022/12/28 03:57:23;;;;;;;7.15;3.80;;;0.50;99.90;;;;;;5047312;28;20119;-78
2022/12/28 03:59:49;;;;;;;6.40;3.67;;;;;;;;;;5047084;28;20184;-78
2022/12/28 04:02:15;;;;;;;3.47;1.98;;;;;;;;;;5047522;28;20465;-77
2022/12/28 04:04:41;;;;;;;2.60;1.90;;;0.60;99.90;;;;;;5046937;28;20097;-78
2022/12/28 04:07:07;;;;;;;1.48;1.38;;;;;;;;;;5046627;28;20032;-77
2022/12/28 04:09:33;;;;;;;3.70;3.00;;;;;;;;;;5043746;28;20021;-78
2022/12/28 04:11:59;;;;;;;2.70;2.42;;;;;;;;;;5035676;28;20091;-77
2022/12/28 04:14:25;;;;;;;6.00;2.42;;;;;;;;;;5044647;28;20033;-78
2022/12/28 04:16:51;;;;;;;7.25;3.13;;;;;;;;;;5047118;28;20037;-78
2022/12/28 04:19:17;;;;;;;4.75;2.25;;;;;;;;;;5046771;28;20024;-78
2022/12/28 04:21:43;;;;;;;3.72;2.95;;;0.20;99.90;;;;;;5046978;28;20029;-77
2022/12/28 04:24:09;;;;;;;4.55;2.15;;;;;;;;;;5046649;28;20036;-78
2022/12/28 04:26:35;;;;;;;3.50;2.15;;;;;;;;;;5046791;28;20112;-78
2022/12/28 04:29:01;;;;;;;2.38;2.13;;;;;;;;;;5046654;28;20551;-78
2022/12/28 04:31:28;;;;;;;3.67;2.65;;;0.10;99.90;;;;;;5046911;28;20051;-78
2022/12/28 04:33:56;;;;;;;3.95;2.45;;;0.20;99.90;;;;;;5048907;28;20028;-78
2022/12/28 04:36:22;;;;;;;1.50;1.35;;;0.20;99.90;;;;;;5046845;28;20822;-78
2022/12/28 04:38:48;;;;;;;4.47;2.38;;;;;;;;;;5044905;28;20060;-78
2022/12/28 04:41:14;;;;;;;4.05;2.20;;;0.30;99.90;;;;;;5046780;28;20536;-78
2022/12/28 04:43:40;;;;;;;2.53;1.92;;;;;;;;;;5045854;28;20056;-78
2022/12/28 04:46:10;;;;;;;9.20;3.45;;;-0.10;99.90;;;;;;5046510;28;20036;-78
2022/12/28 04:48:36;;;;;;;3.55;2.65;;;;;;;;;;5046460;28;20037;-78
2022/12/28 04:51:14;;;;;;;5.55;2.25;;;0.00;99.90;;;;;;5046716;28;20398;-78
2022/12/28 04:53:40;;;;;;;2.45;2.25;;;0.20;99.90;;;;;;5034771;28;20104;-78
2022/12/28 04:56:08;;;;;;;4.22;1.90;;;0.20;99.90;;;;;;5045834;28;20052;-78
2022/12/28 04:58:34;;;;;;;;;;;1.40;99.90;;;;;;5045614;28;20032;-78
2022/12/28 05:01:09;;;;;;;8.13;2.85;;;0.10;99.90;;;;;;5046356;28;20295;-77
2022/12/28 05:03:36;;;;;;;5.10;2.03;;;0.20;99.90;;;;;;5046485;28;20583;-78
2022/12/28 05:06:09;;;;;;;1.55;1.45;;;0.60;99.90;;;;;;5046174;28;20021;-78
2022/12/28 05:08:36;;;;;;;3.20;1.67;;;0.30;99.90;;;;;;5046022;28;20029;-78
2022/12/28 05:11:04;;;;;;;3.53;2.15;;;-1.00;99.90;;;;;;5045979;28;20637;-78
2022/12/28 05:13:30;;;;;;;2.83;1.80;;;;;;;;;;5044298;28;20259;-78
2022/12/28 05:16:01;;;;;;;5.47;3.35;;;0.40;99.90;;;;;;5046234;28;20112;-78
2022/12/28 05:18:27;;;;;;;2.65;1.92;;;;;;;;;;5044476;28;20041;-78
2022/12/28 05:21:06;;;;;;;5.00;1.55;;;0.20;99.90;;;;;;5045853;28;20025;-78
2022/12/28 05:23:33;;;;;;;5.18;2.05;;;0.20;99.90;;;;;;5045980;28;20037;-78
2022/12/28 05:25:59;;;;;;;3.05;2.55;;;;;;;;;;5046156;28;20052;-77
2022/12/28 05:28:26;;;;;;;4.15;1.98;;;;;;;;;;5046156;28;20107;-78
2022/12/28 05:30:52;;;;;;;1.98;1.40;;;;;;;;;;5045716;28;20032;-78
2022/12/28 05:33:18;;;;;;;2.47;2.25;;;-1.20;99.90;;;;;;5045827;28;20269;-78
2022/12/28 05:35:44;;;;;;;2.15;1.58;;;0.00;99.90;;;;;;5045808;28;20096;-78
2022/12/28 05:38:10;;;;;;;3.00;2.63;;;0.10;99.90;;;;;;5044103;28;20635;-78
2022/12/28 05:40:36;;;;;;;5.05;3.15;;;;;;;;;;5045800;28;20021;-78
2022/12/28 05:43:02;;;;;;;4.47;2.88;;;;;;;;;;5045549;28;20461;-78
2022/12/28 05:45:28;;;;;;;4.28;2.13;;;;;;;;;;5045841;28;20110;-77
2022/12/28 05:47:54;;;;;;;5.60;2.63;;;;;;;;;;5047584;28;20175;-77
2022/12/28 05:50:20;;;;;;;4.72;3.80;;;;;;;;;;5046185;28;20021;-78
2022/12/28 05:52:46;;;;;;;4.22;3.40;;;;;;;;;;5045282;28;20040;-78
2022/12/28 05:55:12;;;;;;;3.00;2.45;;;;;;;;;;5046015;28;20406;-78
2022/12/28 05:57:38;;;;;;;2.63;2.20;;;;;;;;;;5045717;28;20096;-78
2022/12/28 06:00:04;;;;;;;2.83;1.55;;;;;;;;;;5046103;28;20027;-79
2022/12/28 06:02:30;;;;;;;2.40;1.88;;;;;;;;;;5045401;28;20486;-78
2022/12/28 06:04:56;;;;;;;1.50;1.40;;;0.00;99.90;;;;;;5045898;28;20017;-79
2022/12/28 06:07:22;;;;;;;3.53;1.88;;;-0.10;99.90;;;;;;5045555;28;20056;-78
2022/12/28 06:09:48;;;;;;;3.75;2.03;;;;;;;;;;5045560;28;20032;-78
2022/12/28 06:12:13;;;;;;;4.63;2.25;;;-0.10;99.90;;;;;;5045748;28;20029;-79
2022/12/28 06:14:39;;;;;;;2.05;1.88;;;;;;;;;;5032847;28;20108;-78
2022/12/28 06:17:05;;;;;;;3.45;2.28;;;;;;;;;;5045312;28;20474;-78
2022/12/28 06:19:31;;;;;;;2.55;2.30;;;;;;;;;;5044161;28;20033;-78
2022/12/28 06:21:57;;;;;;;3.80;2.58;;;;;;;;;;5045574;28;20154;-78
2022/12/28 06:24:23;;;;;;;5.07;4.05;;;;;;;;;;5045603;28;20111;-78
2022/12/28 06:26:49;;;;;;;7.15;3.03;;;;;;;;;;5045330;28;20155;-77
2022/12/28 06:29:16;;;;;;;3.90;3.17;;;;;;;;;;5045761;28;20116;-77
2022/12/28 06:31:50;;;;;;;4.53;2.72;;;-0.10;99.90;;;;;;5035566;28;20025;-77
2022/12/28 06:34:16;;;;;;;7.63;2.53;;;-0.10;99.90;;;;;;5049148;28;20017;-77
2022/12/28 06:36:43;;;;;;;4.32;2.45;;;-0.20;99.90;;;;;;5050243;28;20021;-78
2022/12/28 06:39:10;;;;;;;;;;;0.00;99.90;;;;;;5050194;28;20577;-78
2022/12/28 06:41:37;;;;;;;14.50;4.40;;;0.00;99.90;;;;;;5048534;28;19904;-78
2022/12/28 06:44:07;;;;;;;9.57;2.58;;;-0.10;99.90;;;;;;5048019;28;20592;-78
2022/12/28 06:46:33;;;;;;;2.88;2.20;;;;;;;;;;5048530;28;20036;-78
2022/12/28 06:49:00;;;;;;;5.00;2.65;;;0.10;99.90;;;;;;5048829;28;20828;-78
2022/12/28 06:51:31;;;;;;;4.10;2.03;;;0.00;99.90;;;;;;5048544;28;20009;-78
2022/12/28 06:53:57;;;;;;;6.80;3.60;;;;;;;;;;5048935;28;20025;-78
2022/12/28 06:56:26;;;;;;;3.38;2.40;;;-0.10;99.90;;;;;;5048547;28;20028;-78
2022/12/28 06:58:53;;;;;;;13.88;6.10;;;2.50;99.90;;;;;;5048606;28;20041;-78
2022/12/28 07:01:20;;;;;;;5.40;3.73;;;-0.20;99.90;;;;;;5048557;28;20631;-77
2022/12/28 07:03:47;;;;;;;;;;;-0.10;99.90;;;;;;5048846;28;20028;-77
2022/12/28 07:06:15;;;;;;;42.35;23.40;;;-0.20;99.90;;;;;;5048275;28;20361;-78
2022/12/28 07:08:41;;;;;;;30.23;12.10;;;-0.30;99.90;;;;;;5048534;28;20104;-77
2022/12/28 07:11:12;;;;;;;24.67;11.80;;;-0.50;99.90;;;;;;5048047;28;20108;-78
2022/12/28 07:13:38;;;;;;;21.40;10.02;;;-0.20;99.90;;;;;;5048075;28;20043;-77
2022/12/28 07:16:06;;;;;;;12.18;6.88;;;-0.10;99.90;;;;;;5048286;28;20491;-78
2022/12/28 07:18:32;;;;;;;9.13;4.13;;;;;;;;;;5048099;28;20045;-78
2022/12/28 07:21:06;;;;;;;11.73;5.70;;;0.10;99.90;;;;;;5046320;28;20033;-78
2022/12/28 07:23:32;;;;;;;20.83;9.55;;;0.20;99.90;;;;;;5048061;28;20117;-77
2022/12/28 07:26:13;;;;;;;10.20;5.30;;;0.10;99.90;;;;;;5047573;28;20079;-78
2022/12/28 07:28:40;;;;;;;7.22;4.82;;;0.10;99.90;;;;;;5047992;28;20029;-77
2022/12/28 07:31:07;;;;;;;22.55;5.78;;;0.10;99.90;;;;;;5047941;28;20021;-78
2022/12/28 07:33:34;;;;;;;7.25;4.97;;;0.20;99.90;;;;;;5047542;28;20678;-77
2022/12/28 07:36:00;;;;;;;11.73;6.80;;;;;;;;;;5044674;28;20577;-78
2022/12/28 07:38:27;;;;;;;13.05;6.28;;;;;;;;;;5046734;28;20456;-78
2022/12/28 07:40:53;;;;;;;38.00;8.32;;;;;;;;;;5045228;28;20437;-78
2022/12/28 07:43:18;;;;;;;13.07;6.72;;;;;;;;;;5033516;28;20049;-79
2022/12/28 07:45:44;;;;;;;12.88;7.30;;;;;;;;;;5030827;28;20018;-78
2022/12/28 07:48:10;;;;;;;11.02;5.70;;;;;;;;;;5033748;28;20080;-78
2022/12/28 07:50:36;;;;;;;5.07;4.25;;;;;;;;;;5044769;28;20032;-78
2022/12/28 07:53:02;;;;;;;12.75;4.35;;;;;;;;;;5045921;28;20506;-78
2022/12/28 07:55:30;;;;;;;7.05;3.15;;;;;;;;;;5035347;28;20056;-78
2022/12/28 07:57:56;;;;;;;22.58;8.45;;;;;;;;;;5035821;28;20044;-84
2022/12/28 08:00:22;;;;;;;17.67;6.82;;;;;;;;;;5047073;28;20437;-83
2022/12/28 08:02:48;;;;;;;10.57;6.53;;;;;;;;;;5046599;28;20067;-84
2022/12/28 08:05:14;;;;;;;8.52;4.30;;;1.50;99.90;;;;;;5046123;28;20032;-83
2022/12/28 08:07:40;;;;;;;5.70;3.47;;;;;;;;;;5038867;28;20028;-75
2022/12/28 08:10:06;;;;;;;17.65;4.93;;;;;;;;;;5039110;28;20094;-76
2022/12/28 08:12:32;;;;;;;12.85;4.93;;;1.60;99.90;;;;;;5044944;28;20485;-76
2022/12/28 08:15:00;;;;;;;13.75;6.10;;;;;;;;;;5040285;28;20067;-73
2022/12/28 08:17:25;;;;;;;17.30;6.38;;;;;;;;;;5045911;28;20544;-73
2022/12/28 08:19:54;;;;;;;21.77;9.40;;;;;;;;;;5045962;28;20083;-73
2022/12/28 08:22:20;;;;;;;23.55;9.73;;;;;;;;;;5045824;28;20048;-74
2022/12/28 08:24:46;;;;;;;43.25;15.23;;;;;;;;;;5046160;28;20025;-73
2022/12/28 08:27:12;;;;;;;27.10;14.50;;;;;;;;;;5045457;28;20027;-76
2022/12/28 08:29:38;;;;;;;18.90;10.70;;;;;;;;;;5046132;28;20032;-79
2022/12/28 08:32:04;;;;;;;23.98;8.77;;;;;;;;;;5045409;28;20040;-80
2022/12/28 08:34:30;;;;;;;20.83;8.15;;;;;;;;;;5044752;28;20068;-77
2022/12/28 08:36:56;;;;;;;13.13;8.07;;;;;;;;;;5041688;28;20508;-73
2022/12/28 08:39:22;;;;;;;16.08;7.28;;;;;;;;;;5048064;28;20128;-75
2022/12/28 08:41:48;;;;;;;25.80;10.60;;;;;;;;;;5042812;28;20023;-77
2022/12/28 08:44:14;;;;;;;16.65;7.68;;;;;;;;;;5041713;28;20140;-75
2022/12/28 08:46:40;;;;;;;16.48;5.97;;;2.00;99.90;;;;;;5038340;28;20020;-75
2022/12/28 08:49:06;;;;;;;17.38;6.35;;;;;;;;;;5033574;28;20280;-75
2022/12/28 08:51:41;;;;;;;27.58;11.88;;;10.20;92.30;;;;;;5040542;28;20026;-75
2022/12/28 08:54:08;;;;;;;24.80;10.90;;;15.40;71.50;;;;;;5045968;28;20841;-77
2022/12/28 08:56:36;;;;;;;25.40;14.48;;;19.40;60.50;;;;;;5032635;28;20017;-76
2022/12/28 08:59:03;;;;;;;34.83;16.10;;;22.20;49.20;;;;;;5038234;28;20052;-77
2022/12/28 09:01:31;;;;;;;21.73;12.15;;;24.30;46.20;;;;;;5045607;28;20097;-77
2022/12/28 09:03:59;;;;;;;15.80;8.60;;;24.90;52.00;;;;;;5045986;28;20036;-78
2022/12/28 09:06:30;;;;;;;11.57;6.97;;;23.60;50.80;;;;;;5046389;28;20536;-73
2022/12/28 09:08:57;;;;;;;16.55;6.57;;;21.20;49.80;;;;;;5046097;28;20040;-74
2022/12/28 09:11:23;;;;;;;15.68;8.45;;;19.90;59.10;;;;;;5046113;28;20121;-74
2022/12/28 09:13:49;;;;;;;16.17;8.55;;;21.90;60.30;;;;;;5045667;28;20467;-72
2022/12/28 09:16:22;;;;;;;16.02;9.55;;;22.10;53.50;;;;;;5045146;28;20387;-75
2022/12/28 09:18:55;;;;;;;13.70;8.85;;;20.90;50.60;;;;;;5043078;28;20044;-72
2022/12/28 09:21:23;;;;;;;12.30;8.20;;;23.00;53.40;;;;;;5041079;28;20068;-72
2022/12/28 09:23:49;;;;;;;24.35;12.77;;;24.20;47.50;;;;;;5037429;28;20031;-72
2022/12/28 09:26:20;;;;;;;28.45;16.42;;;25.30;44.70;;;;;;5031957;28;20048;-75
2022/12/28 09:28:48;;;;;;;22.27;13.20;;;25.20;46.70;;;;;;5040641;28;20029;-77
2022/12/28 09:31:14;;;;;;;35.63;19.17;;;;;;;;;;5042453;28;20024;-76
2022/12/28 09:34:02;;;;;;;30.00;18.10;;;;;;;;;;5036119;28;20025;-75
2022/12/28 09:36:29;;;;;;;28.85;16.73;;;23.30;46.30;;;;;;5043643;28;20134;-74
2022/12/28 09:38:56;;;;;;;28.40;15.82;;;24.50;54.70;;;;;;5034918;28;20071;-73
2022/12/28 09:41:53;;;;;;;25.63;15.38;;;25.90;42.90;;;;;;5045367;28;20421;-73
2022/12/28 09:44:44;;;;;;;19.40;14.07;;;27.70;40.60;;;;;;5035183;28;20068;-74
2022/12/28 09:47:34;;;;;;;20.08;12.68;;;29.00;37.30;;;;;;5045155;28;20096;-74
2022/12/28 09:50:17;;;;;;;20.55;12.32;;;29.50;36.50;;;;;;5053919;28;20055;-76
2022/12/28 09:53:22;;;;;;;9.68;5.47;;;30.90;36.40;;;;;;5045373;28;20028;-76
2022/12/28 09:56:19;;;;;;;4.70;2.60;;;30.40;35.70;;;;;;5036531;28;20030;-76
2022/12/28 09:58:45;;;;;;;9.00;5.55;;;;;;;;;;5039262;28;20037;-76
2022/12/28 10:01:14;;;;;;;18.88;10.75;;;30.90;35.00;;;;;;5037428;28;20044;-76
2022/12/28 10:03:41;;;;;;;18.38;8.20;;;31.20;33.90;;;;;;5036573;28;20112;-75
2022/12/28 10:06:12;;;;;;;13.43;6.82;;;32.00;36.20;;;;;;5044336;28;20491;-76
2022/12/28 10:08:45;;;;;;;5.45;2.10;;;30.70;39.40;;;;;;5046096;28;20025;-76
2022/12/28 10:11:17;;;;;;;1.58;1.40;;;29.90;38.30;;;;;;5048598;28;20117;-76
2022/12/28 10:13:43;;;;;;;2.70;1.15;;;28.90;35.70;;;;;;5048437;28;20021;-77
2022/12/28 10:16:19;;;;;;;1.80;1.15;;;28.00;37.30;;;;;;5049037;28;20036;-76
2022/12/28 10:18:46;;;;;;;1.03;0.63;;;26.90;43.10;;;;;;5045279;28;20454;-77
2022/12/28 10:21:13;;;;;;;1.45;0.80;;;26.30;41.90;;;;;;5043876;28;20320;-75
2022/12/28 10:23:40;;;;;;;1.65;0.98;;;25.40;40.60;;;;;;5044371;28;20029;-74
2022/12/28 10:26:06;;;;;;;;;;;25.40;41.10;;;;;;5046014;28;20601;-75
2022/12/28 10:28:59;;;;;;;4.88;0.73;;;24.60;41.60;;;;;;5047260;28;19904;-75
2022/12/28 10:31:35;;;;;;;2.40;1.20;;;26.50;40.40;;;;;;5037694;28;20129;-75
2022/12/28 10:34:01;;;;;;;2.40;1.40;;;;;;;;;;5045266;28;20023;-76
2022/12/28 10:36:32;;;;;;;4.03;1.77;;;27.90;38.70;;;;;;5035669;28;20646;-76
2022/12/28 10:38:58;;;;;;;4.20;1.85;;;;;;;;;;5045811;28;20120;-74
2022/12/28 10:41:34;;;;;;;6.13;3.08;;;28.50;36.30;;;;;;5044166;28;20064;-74
2022/12/28 10:44:18;;;;;;;1.70;1.40;;;27.50;36.60;;;;;;5048639;28;20048;-76
2022/12/28 10:47:01;;;;;;;2.65;1.90;;;26.40;37.50;;;;;;5047359;28;20614;-77
2022/12/28 10:49:30;;;;;;;1.45;0.82;;;25.50;37.50;;;;;;5042688;28;20021;-73
2022/12/28 10:52:14;;;;;;;1.48;0.50;;;26.00;38.10;;;;;;5020438;28;20041;-82
2022/12/28 10:54:40;;;;;;;0.30;0.30;;;26.40;47.80;;;;;;5039525;28;20524;-77
2022/12/28 10:57:06;;;;;;;0.50;0.38;;;;;;;;;;5044406;28;20087;-77
2022/12/28 10:59:32;;;;;;;0.65;0.50;;;;;;;;;;5048066;28;20025;-75
2022/12/28 11:02:22;;;;;;;0.50;0.40;;;29.60;38.20;;;;;;5048738;28;20033;-75
2022/12/28 11:04:59;;;;;;;0.82;0.40;;;29.50;31.80;;;;;;5048065;28;20319;-76
2022/12/28 11:07:27;;;;;;;;;;;29.40;32.20;;;;;;5034947;28;20075;-76
2022/12/28 11:09:53;;;;;;;0.40;0.20;;;;;;;;;;5042626;28;19913;-76
2022/12/28 11:12:25;;;;;;;0.30;0.22;;;28.20;33.80;;;;;;5046167;28;20048;-76
2022/12/28 11:14:51;;;;;;;0.57;0.57;;;28.30;32.60;;;;;;5035665;28;20114;-75
2022/12/28 11:17:28;;;;;;;0.80;0.30;;;28.40;32.40;;;;;;5047205;28;20032;-76
2022/12/28 11:20:00;;;;;;;0.32;0.22;;;25.70;44.30;;;;;;5048265;28;20025;-75
2022/12/28 11:22:28;;;;;;;0.55;0.35;;;22.60;43.90;;;;;;5047627;28;20025;-76
2022/12/28 11:24:58;;;;;;;3.10;1.00;;;20.80;40.60;;;;;;5046996;28;20108;-76
2022/12/28 11:27:24;;;;;;;1.38;0.30;;;;;;;;;;5043018;28;20060;-74
2022/12/28 11:29:53;;;;;;;0.75;0.32;;;18.70;44.40;;;;;;5047753;28;20040;-75
2022/12/28 11:32:45;;;;;;;0.38;0.30;;;18.20;45.50;;;;;;5043259;28;20021;-74
2022/12/28 11:35:20;;;;;;;0.63;0.63;;;17.80;46.70;;;;;;5038856;28;20041;-75
2022/12/28 11:37:57;;;;;;;1.13;0.40;;;17.70;48.10;;;;;;5035305;28;20167;-75
2022/12/28 11:40:51;;;;;;;1.52;0.50;;;17.30;48.20;;;;;;5041340;28;20387;-75
2022/12/28 11:43:29;;;;;;;0.65;0.60;;;17.00;49.00;;;;;;5040549;28;20065;-75
2022/12/28 11:45:58;;;;;;;0.60;0.60;;;17.20;64.00;;;;;;5047907;28;20021;-75
2022/12/28 11:48:41;;;;;;;1.95;0.73;;;16.60;50.70;;;;;;5046779;28;20270;-76
2022/12/28 11:51:21;;;;;;;0.95;0.80;;;16.50;51.70;;;;;;5041766;28;20021;-75
2022/12/28 11:53:47;;;;;;;1.05;1.05;;;;;;;;;;5037095;28;20036;-75
2022/12/28 11:56:15;;;;;;;4.80;1.55;;;17.70;50.00;;;;;;5046842;28;20482;-75
2022/12/28 11:58:41;;;;;;;3.92;1.02;;;19.50;54.40;;;;;;5045590;28;20666;-75
2022/12/28 12:01:28;;;;;;;1.27;0.90;;;20.10;54.50;;;;;;5046609;28;20021;-76
2022/12/28 12:03:57;;;;;;;0.85;0.60;;;19.90;44.60;;;;;;5046822;28;20021;-75
2022/12/28 12:06:40;;;;;;;1.17;0.60;;;19.00;45.80;;;;;;5044478;28;20037;-75
2022/12/28 12:09:24;;;;;;;0.95;0.63;;;18.00;50.80;;;;;;5046248;28;20789;-75
2022/12/28 12:11:58;;;;;;;0.50;0.40;;;17.30;48.90;;;;;;5045291;28;20032;-75
2022/12/28 12:14:26;;;;;;;1.52;0.82;;;16.90;49.80;;;;;;5044012;28;20456;-75
2022/12/28 12:17:19;;;;;;;5.35;0.70;;;16.70;50.90;;;;;;5036247;28;20061;-76
2022/12/28 12:19:52;;;;;;;0.77;0.70;;;16.60;51.30;;;;;;5046639;28;20035;-75
2022/12/28 12:22:23;;;;;;;0.95;0.68;;;16.40;53.50;;;;;;5046607;28;20678;-75
2022/12/28 12:25:26;;;;;;;1.40;0.60;;;16.50;51.80;;;;;;5044777;28;20116;-75
2022/12/28 12:28:05;;;;;;;1.58;0.85;;;16.60;51.90;;;;;;5001733;28;20129;-75
2022/12/28 12:30:31;;;;;;;0.63;0.50;;;16.70;55.40;;;;;;4997957;28;20116;-75
2022/12/28 12:33:10;;;;;;;1.10;0.95;;;16.80;54.60;;;;;;5003525;28;20157;-75
2022/12/28 12:36:12;;;;;;;1.85;0.75;;;16.40;56.30;;;;;;5002343;28;20030;-75
2022/12/28 12:39:14;;;;;;;0.85;0.73;;;16.40;52.90;;;;;;4944876;29;20070;-75
2022/12/28 12:42:04;;;;;;;1.65;1.00;;;16.80;52.70;;;;;;4945536;29;20057;-75
2022/12/28 12:44:42;;;;;;;1.15;0.68;;;16.70;52.40;;;;;;4945003;29;20073;-75
2022/12/28 12:47:31;;;;;;;1.20;0.60;;;16.80;52.80;;;;;;4928834;29;20035;-76
2022/12/28 12:49:59;;;;;;;1.02;0.77;;;16.80;52.80;;;;;;4945507;29;20481;-76
2022/12/28 12:53:03;;;;;;;1.65;0.77;;;17.10;67.20;;;;;;4945424;29;20550;-74
2022/12/28 12:55:29;;;;;;;5.25;1.05;;;;;;;;;;4945431;29;20087;-77
2022/12/28 12:58:26;;;;;;;3.83;1.00;;;17.70;51.10;;;;;;4944870;29;20082;-75
2022/12/28 13:01:28;;;;;;;1.67;0.95;;;17.30;51.70;;;;;;4932832;29;20215;-76
2022/12/28 13:03:59;;;;;;;1.83;0.95;;;17.50;51.50;;;;;;4976957;28;20045;-74
2022/12/28 13:06:29;;;;;;;1.17;0.80;;;17.20;52.00;;;;;;5000944;28;20571;-74
2022/12/28 13:08:58;;;;;;;3.88;1.33;;;16.90;54.40;;;;;;5003191;28;20419;-74
2022/12/28 13:11:25;;;;;;;1.10;0.75;;;;;;;;;;5001897;28;20029;-74
2022/12/28 13:13:53;;;;;;;2.33;0.73;;;16.20;55.90;;;;;;5003055;28;20036;-74
2022/12/28 13:16:27;;;;;;;1.58;1.20;;;16.40;54.20;;;;;;5020340;28;20056;-75
2022/12/28 13:18:57;;;;;;;3.30;0.88;;;16.30;54.30;;;;;;5045470;28;20044;-74
2022/12/28 13:21:25;;;;;;;0.70;0.70;;;16.10;54.50;;;;;;5045060;28;20033;-75
2022/12/28 13:23:51;;;;;;;1.17;0.60;;;;;;;;;;5044906;28;20037;-74
2022/12/28 13:26:22;;;;;;;0.77;0.75;;;15.90;55.10;;;;;;5043646;28;20049;-74
2022/12/28 13:28:54;;;;;;;0.50;0.50;;;15.70;54.60;;;;;;5035876;28;20017;-76
2022/12/28 13:31:31;;;;;;;1.30;1.02;;;15.50;54.90;;;;;;5038398;28;20029;-74
2022/12/28 13:34:12;;;;;;;2.45;0.60;;;15.30;55.70;;;;;;5042512;28;20402;-74
2022/12/28 13:36:59;;;;;;;2.40;0.88;;;15.10;55.90;;;;;;5038819;28;20049;-75
2022/12/28 13:39:30;;;;;;;0.73;0.68;;;15.10;71.90;;;;;;5044116;28;20037;-74
2022/12/28 13:41:57;;;;;;;1.23;0.70;;;14.70;56.40;;;;;;5047534;28;20033;-74
2022/12/28 13:44:23;;;;;;;2.05;0.70;;;;;;;;;;5032227;28;20068;-72
2022/12/28 13:46:55;;;;;;;6.28;1.00;;;14.40;57.70;;;;;;5045030;28;20493;-77
2022/12/28 13:49:21;;;;;;;1.30;0.85;;;;;;;;;;5044059;28;20021;-78
2022/12/28 13:51:48;;;;;;;1.02;0.68;;;14.10;57.90;;;;;;5046668;28;20397;-77
2022/12/28 13:54:14;;;;;;;1.00;0.70;;;;;;;;;;5044366;28;20028;-77
2022/12/28 13:56:43;;;;;;;2.28;0.88;;;14.00;58.70;;;;;;5044487;28;20087;-76
2022/12/28 13:59:14;;;;;;;1.25;0.82;;;13.90;62.50;;;;;;5042905;28;20110;-77
2022/12/28 14:01:42;;;;;;;1.02;0.90;;;14.00;59.10;;;;;;5046051;28;20155;-77
2022/12/28 14:04:19;;;;;;;2.90;1.15;;;13.90;59.30;;;;;;5042811;28;20048;-77
2022/12/28 14:06:45;;;;;;;1.35;1.00;;;14.00;59.40;;;;;;5046200;28;20029;-76
2022/12/28 14:09:12;;;;;;;1.73;1.20;;;14.20;59.30;;;;;;5046183;28;20115;-76
2022/12/28 14:11:42;;;;;;;1.10;0.80;;;14.50;59.20;;;;;;5046733;28;20035;-76